sensor_id;sensor_type;location;lat;lon;timestamp;pressure;altitude;pressure_sealevel;temperature;humidity
50702;BME280;36670;50.094;8.496;2023-06-22T00:01:45;100311.72;;;25.12;54.44
50702;BME280;36670;50.094;8.496;2023-06-22T00:04:10;100322.31;;;25.15;53.68
50702;BME280;36670;50.094;8.496;2023-06-22T00:06:35;100336.41;;;25.36;54.12
50702;BME280;36670;50.094;8.496;2023-06-22T00:09:01;100345.22;;;25.47;53.10
50702;BME280;36670;50.094;8.496;2023-06-22T00:11:26;100364.19;;;25.83;52.46
50702;BME280;36670;50.094;8.496;2023-06-22T00:13:52;100374.09;;;26.02;52.41
50702;BME280;36670;50.094;8.496;2023-06-22T00:16:18;100386.31;;;25.81;52.49
50702;BME280;36670;50.094;8.496;2023-06-22T00:18:43;100392.00;;;26.06;52.28
50702;BME280;36670;50.094;8.496;2023-06-22T00:21:12;100393.13;;;26.30;50.99
50702;BME280;36670;50.094;8.496;2023-06-22T00:23:37;100399.84;;;26.37;51.65
50702;BME280;36670;50.094;8.496;2023-06-22T00:26:02;100399.13;;;26.40;50.91
50702;BME280;36670;50.094;8.496;2023-06-22T00:28:28;100414.44;;;26.39;50.32
50702;BME280;36670;50.094;8.496;2023-06-22T00:30:54;100421.38;;;26.54;50.86
50702;BME280;36670;50.094;8.496;2023-06-22T00:33:19;100425.00;;;26.55;50.25
50702;BME280;36670;50.094;8.496;2023-06-22T00:35:44;100432.38;;;26.44;51.20
50702;BME280;36670;50.094;8.496;2023-06-22T00:38:10;100431.50;;;26.55;50.71
50702;BME280;36670;50.094;8.496;2023-06-22T00:40:36;100438.56;;;26.74;50.53
50702;BME280;36670;50.094;8.496;2023-06-22T00:43:01;100438.88;;;26.85;50.18
50702;BME280;36670;50.094;8.496;2023-06-22T00:45:27;100443.91;;;26.91;50.35
50702;BME280;36670;50.094;8.496;2023-06-22T00:47:53;100443.81;;;26.88;50.36
50702;BME280;36670;50.094;8.496;2023-06-22T00:50:21;100440.72;;;26.93;49.70
50702;BME280;36670;50.094;8.496;2023-06-22T00:52:57;100439.66;;;26.98;49.65
50702;BME280;36670;50.094;8.496;2023-06-22T00:55:25;100432.69;;;26.95;49.97
50702;BME280;36670;50.094;8.496;2023-06-22T00:57:56;100431.59;;;27.00;49.32
50702;BME280;36670;50.094;8.496;2023-06-22T01:00:23;100447.00;;;26.86;50.14
50702;BME280;36670;50.094;8.496;2023-06-22T01:02:52;100463.88;;;27.11;49.79
50702;BME280;36670;50.094;8.496;2023-06-22T01:05:21;100483.94;;;27.18;49.29
50702;BME280;36670;50.094;8.496;2023-06-22T01:10:36;100543.78;;;27.17;50.50
50702;BME280;36670;50.094;8.496;2023-06-22T01:13:08;100547.53;;;26.92;51.19
50702;BME280;36670;50.094;8.496;2023-06-22T01:15:41;100565.59;;;27.00;52.14
50702;BME280;36670;50.094;8.496;2023-06-22T01:18:09;100557.50;;;26.74;52.42
50702;BME280;36670;50.094;8.496;2023-06-22T01:20:35;100541.34;;;26.50;54.03
50702;BME280;36670;50.094;8.496;2023-06-22T01:25:53;100395.75;;;25.36;58.47
50702;BME280;36670;50.094;8.496;2023-06-22T01:28:31;100402.31;;;24.94;59.26
50702;BME280;36670;50.094;8.496;2023-06-22T01:30:58;100395.03;;;24.93;59.30
50702;BME280;36670;50.094;8.496;2023-06-22T01:33:33;100381.41;;;24.53;61.10
50702;BME280;36670;50.094;8.496;2023-06-22T01:36:00;100370.97;;;24.32;61.24
50702;BME280;36670;50.094;8.496;2023-06-22T01:38:26;100365.50;;;24.27;61.34
50702;BME280;36670;50.094;8.496;2023-06-22T01:40:53;100350.66;;;23.67;65.36
50702;BME280;36670;50.094;8.496;2023-06-22T01:43:21;100349.41;;;23.77;64.29
50702;BME280;36670;50.094;8.496;2023-06-22T01:45:48;100357.38;;;23.54;65.52
50702;BME280;36670;50.094;8.496;2023-06-22T01:48:14;100377.22;;;23.57;64.92
50702;BME280;36670;50.094;8.496;2023-06-22T01:50:40;100396.81;;;23.83;64.00
50702;BME280;36670;50.094;8.496;2023-06-22T01:53:05;100406.50;;;24.03;63.13
50702;BME280;36670;50.094;8.496;2023-06-22T01:55:32;100415.63;;;24.30;62.26
50702;BME280;36670;50.094;8.496;2023-06-22T01:57:57;100414.75;;;24.39;61.80
50702;BME280;36670;50.094;8.496;2023-06-22T02:00:25;100412.94;;;24.34;62.23
50702;BME280;36670;50.094;8.496;2023-06-22T02:03:00;100399.53;;;24.31;62.79
50702;BME280;36670;50.094;8.496;2023-06-22T02:05:32;100381.78;;;24.30;63.27
50702;BME280;36670;50.094;8.496;2023-06-22T02:08:13;100368.13;;;24.11;63.43
50702;BME280;36670;50.094;8.496;2023-06-22T02:10:43;100390.59;;;24.29;62.96
50702;BME280;36670;50.094;8.496;2023-06-22T02:13:09;100383.75;;;24.09;63.34
50702;BME280;36670;50.094;8.496;2023-06-22T02:15:35;100384.91;;;23.78;65.47
50702;BME280;36670;50.094;8.496;2023-06-22T02:18:01;100378.31;;;23.74;65.44
50702;BME280;36670;50.094;8.496;2023-06-22T02:20:26;100371.84;;;23.73;65.51
50702;BME280;36670;50.094;8.496;2023-06-22T02:22:51;100364.16;;;23.82;65.33
50702;BME280;36670;50.094;8.496;2023-06-22T02:25:17;100363.53;;;23.77;65.52
50702;BME280;36670;50.094;8.496;2023-06-22T02:27:42;100357.41;;;23.75;64.99
50702;BME280;36670;50.094;8.496;2023-06-22T02:30:08;100362.72;;;23.76;65.62
50702;BME280;36670;50.094;8.496;2023-06-22T02:32:34;100371.16;;;23.76;65.43
50702;BME280;36670;50.094;8.496;2023-06-22T02:34:59;100376.84;;;23.67;65.45
50702;BME280;36670;50.094;8.496;2023-06-22T02:37:25;100373.09;;;23.84;65.21
50702;BME280;36670;50.094;8.496;2023-06-22T02:39:50;100373.41;;;23.92;65.32
50702;BME280;36670;50.094;8.496;2023-06-22T02:42:15;100387.81;;;24.20;63.93
50702;BME280;36670;50.094;8.496;2023-06-22T02:44:45;100409.16;;;24.51;63.46
50702;BME280;36670;50.094;8.496;2023-06-22T02:47:10;100397.41;;;24.70;62.25
50702;BME280;36670;50.094;8.496;2023-06-22T02:49:36;100365.28;;;24.62;62.71
50702;BME280;36670;50.094;8.496;2023-06-22T02:52:01;100364.75;;;24.60;63.37
50702;BME280;36670;50.094;8.496;2023-06-22T02:54:26;100346.56;;;24.70;62.73
50702;BME280;36670;50.094;8.496;2023-06-22T02:56:52;100352.16;;;24.79;62.24
50702;BME280;36670;50.094;8.496;2023-06-22T02:59:17;100353.94;;;24.83;62.39
50702;BME280;36670;50.094;8.496;2023-06-22T03:01:42;100347.56;;;24.86;61.79
50702;BME280;36670;50.094;8.496;2023-06-22T03:04:09;100352.28;;;24.82;62.72
50702;BME280;36670;50.094;8.496;2023-06-22T03:06:35;100348.44;;;24.66;63.08
50702;BME280;36670;50.094;8.496;2023-06-22T03:09:03;100351.88;;;24.50;64.09
50702;BME280;36670;50.094;8.496;2023-06-22T03:11:30;100355.88;;;24.49;63.68
50702;BME280;36670;50.094;8.496;2023-06-22T03:13:56;100355.16;;;24.19;64.59
50702;BME280;36670;50.094;8.496;2023-06-22T03:16:21;100338.34;;;24.01;64.92
50702;BME280;36670;50.094;8.496;2023-06-22T03:18:46;100334.09;;;23.95;65.96
50702;BME280;36670;50.094;8.496;2023-06-22T03:21:11;100341.94;;;24.11;64.82
50702;BME280;36670;50.094;8.496;2023-06-22T03:23:37;100333.63;;;23.84;65.70
50702;BME280;36670;50.094;8.496;2023-06-22T03:26:02;100332.56;;;23.98;64.60
50702;BME280;36670;50.094;8.496;2023-06-22T03:28:28;100334.94;;;23.87;64.94
50702;BME280;36670;50.094;8.496;2023-06-22T03:30:53;100343.56;;;23.91;65.87
50702;BME280;36670;50.094;8.496;2023-06-22T03:33:19;100337.66;;;24.05;64.50
50702;BME280;36670;50.094;8.496;2023-06-22T03:35:44;100342.56;;;24.16;63.85
50702;BME280;36670;50.094;8.496;2023-06-22T03:38:09;100326.34;;;23.83;65.29
50702;BME280;36670;50.094;8.496;2023-06-22T03:40:34;100343.75;;;23.85;65.22
50702;BME280;36670;50.094;8.496;2023-06-22T03:43:00;100335.06;;;23.69;65.80
50702;BME280;36670;50.094;8.496;2023-06-22T03:45:25;100331.25;;;23.65;65.55
50702;BME280;36670;50.094;8.496;2023-06-22T03:47:50;100322.63;;;23.71;65.14
50702;BME280;36670;50.094;8.496;2023-06-22T03:50:15;100330.53;;;23.77;64.93
50702;BME280;36670;50.094;8.496;2023-06-22T03:52:41;100336.75;;;23.92;64.55
50702;BME280;36670;50.094;8.496;2023-06-22T03:55:07;100338.13;;;23.85;64.07
50702;BME280;36670;50.094;8.496;2023-06-22T03:57:32;100332.97;;;23.88;63.95
50702;BME280;36670;50.094;8.496;2023-06-22T03:59:58;100326.19;;;23.89;64.06
50702;BME280;36670;50.094;8.496;2023-06-22T04:02:24;100343.28;;;24.26;63.40
50702;BME280;36670;50.094;8.496;2023-06-22T04:04:49;100330.47;;;24.49;63.15
50702;BME280;36670;50.094;8.496;2023-06-22T04:07:15;100331.59;;;24.36;62.49
50702;BME280;36670;50.094;8.496;2023-06-22T04:09:40;100344.75;;;24.11;63.35
50702;BME280;36670;50.094;8.496;2023-06-22T04:12:05;100340.34;;;24.22;62.53
50702;BME280;36670;50.094;8.496;2023-06-22T04:14:31;100333.00;;;23.79;64.00
50702;BME280;36670;50.094;8.496;2023-06-22T04:16:57;100354.50;;;24.13;63.37
50702;BME280;36670;50.094;8.496;2023-06-22T04:19:22;100349.91;;;24.30;63.15
50702;BME280;36670;50.094;8.496;2023-06-22T04:21:48;100348.09;;;24.46;62.46
50702;BME280;36670;50.094;8.496;2023-06-22T04:24:14;100344.38;;;24.54;61.54
50702;BME280;36670;50.094;8.496;2023-06-22T04:26:39;100346.44;;;24.45;62.11
50702;BME280;36670;50.094;8.496;2023-06-22T04:29:06;100332.56;;;23.98;62.60
50702;BME280;36670;50.094;8.496;2023-06-22T04:31:33;100343.22;;;24.13;62.52
50702;BME280;36670;50.094;8.496;2023-06-22T04:34:02;100346.47;;;24.03;63.35
50702;BME280;36670;50.094;8.496;2023-06-22T04:36:35;100346.41;;;23.82;63.89
50702;BME280;36670;50.094;8.496;2023-06-22T04:39:08;100360.47;;;23.91;63.57
50702;BME280;36670;50.094;8.496;2023-06-22T04:41:35;100369.53;;;24.05;62.80
50702;BME280;36670;50.094;8.496;2023-06-22T04:44:10;100369.78;;;23.52;64.22
50702;BME280;36670;50.094;8.496;2023-06-22T04:46:36;100366.97;;;23.52;63.68
50702;BME280;36670;50.094;8.496;2023-06-22T04:49:07;100367.44;;;23.55;64.48
50702;BME280;36670;50.094;8.496;2023-06-22T04:51:39;100373.00;;;23.72;63.33
50702;BME280;36670;50.094;8.496;2023-06-22T04:54:05;100356.53;;;23.53;64.35
50702;BME280;36670;50.094;8.496;2023-06-22T04:56:31;100363.00;;;23.54;64.77
50702;BME280;36670;50.094;8.496;2023-06-22T04:58:57;100356.19;;;23.55;64.49
50702;BME280;36670;50.094;8.496;2023-06-22T05:01:23;100357.44;;;23.36;65.80
50702;BME280;36670;50.094;8.496;2023-06-22T05:03:49;100350.97;;;23.35;65.64
50702;BME280;36670;50.094;8.496;2023-06-22T05:06:15;100352.63;;;23.37;65.30
50702;BME280;36670;50.094;8.496;2023-06-22T05:08:40;100351.72;;;23.54;65.09
50702;BME280;36670;50.094;8.496;2023-06-22T05:11:05;100356.53;;;23.53;65.11
50702;BME280;36670;50.094;8.496;2023-06-22T05:13:32;100352.69;;;23.58;65.04
50702;BME280;36670;50.094;8.496;2023-06-22T05:15:57;100351.22;;;23.51;64.92
50702;BME280;36670;50.094;8.496;2023-06-22T05:18:29;100352.94;;;23.44;65.42
50702;BME280;36670;50.094;8.496;2023-06-22T05:20:55;100352.88;;;23.52;65.29
50702;BME280;36670;50.094;8.496;2023-06-22T05:23:20;100342.88;;;23.64;65.23
50702;BME280;36670;50.094;8.496;2023-06-22T05:25:46;100327.50;;;23.82;64.55
50702;BME280;36670;50.094;8.496;2023-06-22T05:28:11;100343.19;;;24.22;63.20
50702;BME280;36670;50.094;8.496;2023-06-22T05:30:37;100343.63;;;24.24;63.19
50702;BME280;36670;50.094;8.496;2023-06-22T05:33:02;100332.81;;;24.47;63.16
50702;BME280;36670;50.094;8.496;2023-06-22T05:35:28;100322.41;;;24.60;62.30
50702;BME280;36670;50.094;8.496;2023-06-22T05:37:54;100336.50;;;25.39;60.22
50702;BME280;36670;50.094;8.496;2023-06-22T05:40:20;100333.53;;;26.38;59.10
50702;BME280;36670;50.094;8.496;2023-06-22T05:42:45;100324.19;;;26.79;56.68
50702;BME280;36670;50.094;8.496;2023-06-22T05:45:11;100327.88;;;27.27;55.40
50702;BME280;36670;50.094;8.496;2023-06-22T05:47:36;100323.00;;;27.75;53.58
50702;BME280;36670;50.094;8.496;2023-06-22T05:50:01;100323.53;;;28.17;52.51
50702;BME280;36670;50.094;8.496;2023-06-22T05:52:31;100322.97;;;28.66;51.82
50702;BME280;36670;50.094;8.496;2023-06-22T05:54:56;100331.03;;;29.07;51.09
50702;BME280;36670;50.094;8.496;2023-06-22T05:57:22;100322.25;;;29.39;50.50
50702;BME280;36670;50.094;8.496;2023-06-22T05:59:47;100311.13;;;30.07;49.43
50702;BME280;36670;50.094;8.496;2023-06-22T06:02:12;100320.19;;;29.86;47.64
50702;BME280;36670;50.094;8.496;2023-06-22T06:04:38;100329.09;;;29.34;49.68
50702;BME280;36670;50.094;8.496;2023-06-22T06:07:03;100324.47;;;29.76;48.38
50702;BME280;36670;50.094;8.496;2023-06-22T06:09:28;100322.44;;;29.50;48.23
50702;BME280;36670;50.094;8.496;2023-06-22T06:11:54;100317.91;;;29.99;48.21
50702;BME280;36670;50.094;8.496;2023-06-22T06:14:19;100316.16;;;29.17;48.88
50702;BME280;36670;50.094;8.496;2023-06-22T06:16:45;100316.22;;;28.74;50.35
50702;BME280;36670;50.094;8.496;2023-06-22T06:19:10;100315.91;;;28.80;50.32
50702;BME280;36670;50.094;8.496;2023-06-22T06:21:35;100311.63;;;29.12;49.74
50702;BME280;36670;50.094;8.496;2023-06-22T06:24:01;100301.59;;;29.42;48.98
50702;BME280;36670;50.094;8.496;2023-06-22T06:26:26;100301.09;;;29.36;48.83
50702;BME280;36670;50.094;8.496;2023-06-22T06:28:55;100308.63;;;27.84;52.03
50702;BME280;36670;50.094;8.496;2023-06-22T06:31:21;100304.28;;;27.55;53.34
50702;BME280;36670;50.094;8.496;2023-06-22T06:33:46;100310.75;;;28.46;51.74
50702;BME280;36670;50.094;8.496;2023-06-22T06:36:12;100304.28;;;28.26;51.37
50702;BME280;36670;50.094;8.496;2023-06-22T06:38:37;100299.06;;;27.57;54.07
50702;BME280;36670;50.094;8.496;2023-06-22T06:41:02;100299.91;;;27.41;53.77
50702;BME280;36670;50.094;8.496;2023-06-22T06:43:27;100318.91;;;27.57;54.09
50702;BME280;36670;50.094;8.496;2023-06-22T06:45:53;100314.63;;;27.63;53.84
50702;BME280;36670;50.094;8.496;2023-06-22T06:48:18;100290.16;;;27.74;53.23
50702;BME280;36670;50.094;8.496;2023-06-22T06:50:43;100308.72;;;27.88;53.53
50702;BME280;36670;50.094;8.496;2023-06-22T06:53:09;100293.38;;;27.73;53.97
50702;BME280;36670;50.094;8.496;2023-06-22T06:55:34;100291.06;;;27.79;54.03
50702;BME280;36670;50.094;8.496;2023-06-22T06:58:01;100284.88;;;27.57;54.29
50702;BME280;36670;50.094;8.496;2023-06-22T07:00:27;100297.13;;;27.61;54.65
50702;BME280;36670;50.094;8.496;2023-06-22T07:02:53;100292.50;;;27.88;53.67
50702;BME280;36670;50.094;8.496;2023-06-22T07:05:18;100303.63;;;27.97;53.95
50702;BME280;36670;50.094;8.496;2023-06-22T07:07:43;100301.44;;;27.90;53.50
50702;BME280;36670;50.094;8.496;2023-06-22T07:10:09;100292.91;;;28.06;53.52
50702;BME280;36670;50.094;8.496;2023-06-22T07:12:35;100297.91;;;27.77;54.34
50702;BME280;36670;50.094;8.496;2023-06-22T07:15:09;100299.91;;;27.41;54.70
50702;BME280;36670;50.094;8.496;2023-06-22T07:17:35;100284.63;;;27.30;54.81
50702;BME280;36670;50.094;8.496;2023-06-22T07:20:03;100288.09;;;27.23;54.93
50702;BME280;36670;50.094;8.496;2023-06-22T07:22:33;100278.41;;;27.24;55.38
50702;BME280;36670;50.094;8.496;2023-06-22T07:24:58;100275.69;;;27.44;54.51
50702;BME280;36670;50.094;8.496;2023-06-22T07:27:23;100280.69;;;27.86;54.50
50702;BME280;36670;50.094;8.496;2023-06-22T07:29:49;100282.31;;;28.42;52.84
50702;BME280;36670;50.094;8.496;2023-06-22T07:32:14;100277.53;;;28.27;52.42
50702;BME280;36670;50.094;8.496;2023-06-22T07:34:40;100262.59;;;28.10;52.83
50702;BME280;36670;50.094;8.496;2023-06-22T07:37:06;100267.72;;;28.44;53.28
50702;BME280;36670;50.094;8.496;2023-06-22T07:39:31;100267.19;;;28.77;52.40
50702;BME280;36670;50.094;8.496;2023-06-22T07:41:56;100261.97;;;28.40;52.00
50702;BME280;36670;50.094;8.496;2023-06-22T07:44:22;100272.66;;;28.47;52.43
50702;BME280;36670;50.094;8.496;2023-06-22T07:46:47;100255.13;;;28.84;52.11
50702;BME280;36670;50.094;8.496;2023-06-22T07:49:13;100263.06;;;28.98;51.22
50702;BME280;36670;50.094;8.496;2023-06-22T07:51:38;100249.56;;;28.91;50.75
50702;BME280;36670;50.094;8.496;2023-06-22T07:54:03;100251.66;;;28.71;51.30
50702;BME280;36670;50.094;8.496;2023-06-22T07:56:29;100248.75;;;28.48;51.77
50702;BME280;36670;50.094;8.496;2023-06-22T07:58:54;100254.88;;;28.93;51.02
50702;BME280;36670;50.094;8.496;2023-06-22T08:01:20;100244.19;;;29.09;50.12
50702;BME280;36670;50.094;8.496;2023-06-22T08:03:48;100249.13;;;29.39;49.99
50702;BME280;36670;50.094;8.496;2023-06-22T08:06:13;100253.69;;;29.21;50.74
50702;BME280;36670;50.094;8.496;2023-06-22T08:08:38;100248.03;;;28.98;50.90
50702;BME280;36670;50.094;8.496;2023-06-22T08:11:04;100256.34;;;29.10;50.87
50702;BME280;36670;50.094;8.496;2023-06-22T08:13:30;100254.84;;;29.66;50.04
50702;BME280;36670;50.094;8.496;2023-06-22T08:15:56;100247.28;;;29.81;49.60
50702;BME280;36670;50.094;8.496;2023-06-22T08:18:21;100246.66;;;29.91;49.18
50702;BME280;36670;50.094;8.496;2023-06-22T08:20:46;100257.19;;;29.87;48.33
50702;BME280;36670;50.094;8.496;2023-06-22T08:23:11;100248.41;;;30.00;48.15
50702;BME280;36670;50.094;8.496;2023-06-22T08:25:37;100246.78;;;29.72;48.93
50702;BME280;36670;50.094;8.496;2023-06-22T08:28:03;100233.59;;;29.60;49.74
50702;BME280;36670;50.094;8.496;2023-06-22T08:30:28;100226.38;;;29.96;48.76
50702;BME280;36670;50.094;8.496;2023-06-22T08:32:54;100238.13;;;29.91;49.03
50702;BME280;36670;50.094;8.496;2023-06-22T08:35:21;100227.94;;;29.90;49.18
50702;BME280;36670;50.094;8.496;2023-06-22T08:37:47;100223.41;;;30.16;49.01
50702;BME280;36670;50.094;8.496;2023-06-22T08:40:17;100222.09;;;30.44;48.26
50702;BME280;36670;50.094;8.496;2023-06-22T08:42:42;100216.53;;;30.24;48.04
50702;BME280;36670;50.094;8.496;2023-06-22T08:45:08;100211.84;;;30.39;48.48
50702;BME280;36670;50.094;8.496;2023-06-22T08:47:33;100212.09;;;30.61;48.59
50702;BME280;36670;50.094;8.496;2023-06-22T08:49:58;100207.88;;;30.47;47.72
50702;BME280;36670;50.094;8.496;2023-06-22T08:52:24;100211.81;;;30.73;48.75
50702;BME280;36670;50.094;8.496;2023-06-22T08:54:49;100189.47;;;30.83;47.03
50702;BME280;36670;50.094;8.496;2023-06-22T08:57:15;100199.72;;;30.46;47.99
50702;BME280;36670;50.094;8.496;2023-06-22T08:59:41;100177.69;;;30.43;48.11
50702;BME280;36670;50.094;8.496;2023-06-22T09:02:07;100193.94;;;30.39;48.01
50702;BME280;36670;50.094;8.496;2023-06-22T09:04:32;100191.50;;;30.41;48.74
50702;BME280;36670;50.094;8.496;2023-06-22T09:07:00;100187.78;;;30.37;47.98
50702;BME280;36670;50.094;8.496;2023-06-22T09:09:25;100200.41;;;30.77;48.06
50702;BME280;36670;50.094;8.496;2023-06-22T09:11:51;100189.63;;;30.97;47.39
50702;BME280;36670;50.094;8.496;2023-06-22T09:14:16;100192.59;;;31.11;46.96
50702;BME280;36670;50.094;8.496;2023-06-22T09:16:42;100186.66;;;31.35;46.45
50702;BME280;36670;50.094;8.496;2023-06-22T09:19:07;100184.91;;;31.23;46.06
50702;BME280;36670;50.094;8.496;2023-06-22T09:21:32;100175.81;;;31.58;46.72
50702;BME280;36670;50.094;8.496;2023-06-22T09:23:58;100171.00;;;31.84;45.31
50702;BME280;36670;50.094;8.496;2023-06-22T09:26:23;100176.34;;;31.93;45.13
50702;BME280;36670;50.094;8.496;2023-06-22T09:28:49;100173.81;;;31.70;45.52
50702;BME280;36670;50.094;8.496;2023-06-22T09:31:14;100179.13;;;31.78;45.97
50702;BME280;36670;50.094;8.496;2023-06-22T09:33:41;100163.41;;;32.24;45.74
50702;BME280;36670;50.094;8.496;2023-06-22T09:36:07;100157.38;;;32.83;44.36
50702;BME280;36670;50.094;8.496;2023-06-22T09:38:36;100159.31;;;32.22;43.86
50702;BME280;36670;50.094;8.496;2023-06-22T09:41:01;100155.34;;;31.49;44.96
50702;BME280;36670;50.094;8.496;2023-06-22T09:43:27;100149.56;;;31.38;45.29
50702;BME280;36670;50.094;8.496;2023-06-22T09:45:52;100147.75;;;31.75;45.57
50702;BME280;36670;50.094;8.496;2023-06-22T09:48:18;100150.69;;;32.04;44.57
50702;BME280;36670;50.094;8.496;2023-06-22T09:50:43;100140.53;;;32.21;44.38
50702;BME280;36670;50.094;8.496;2023-06-22T09:53:09;100156.09;;;32.38;43.81
50702;BME280;36670;50.094;8.496;2023-06-22T09:55:34;100141.69;;;32.05;43.83
50702;BME280;36670;50.094;8.496;2023-06-22T09:57:59;100140.94;;;31.27;44.82
50702;BME280;36670;50.094;8.496;2023-06-22T10:00:24;100138.25;;;31.53;45.20
50702;BME280;36670;50.094;8.496;2023-06-22T10:02:51;100132.66;;;31.71;44.81
50702;BME280;36670;50.094;8.496;2023-06-22T10:05:17;100147.09;;;32.32;44.36
50702;BME280;36670;50.094;8.496;2023-06-22T10:07:42;100138.53;;;32.61;43.05
50702;BME280;36670;50.094;8.496;2023-06-22T10:10:09;100118.13;;;33.06;42.75
50702;BME280;36670;50.094;8.496;2023-06-22T10:12:35;100109.97;;;32.90;41.47
50702;BME280;36670;50.094;8.496;2023-06-22T10:15:00;100103.44;;;32.39;43.03
50702;BME280;36670;50.094;8.496;2023-06-22T10:17:25;100101.81;;;32.56;43.79
50702;BME280;36670;50.094;8.496;2023-06-22T10:19:51;100089.94;;;33.00;42.36
50702;BME280;36670;50.094;8.496;2023-06-22T10:22:16;100098.53;;;32.86;42.04
50702;BME280;36670;50.094;8.496;2023-06-22T10:24:41;100093.56;;;33.26;41.93
50702;BME280;36670;50.094;8.496;2023-06-22T10:27:10;100085.19;;;33.72;41.97
50702;BME280;36670;50.094;8.496;2023-06-22T10:29:35;100070.53;;;34.29;41.48
50702;BME280;36670;50.094;8.496;2023-06-22T10:32:01;100077.38;;;34.46;38.95
50702;BME280;36670;50.094;8.496;2023-06-22T10:34:26;100068.69;;;34.01;39.28
50702;BME280;36670;50.094;8.496;2023-06-22T10:36:51;100063.53;;;33.71;39.34
50702;BME280;36670;50.094;8.496;2023-06-22T10:39:17;100048.56;;;34.12;38.27
50702;BME280;36670;50.094;8.496;2023-06-22T10:41:42;100052.91;;;34.34;37.84
50702;BME280;36670;50.094;8.496;2023-06-22T10:44:08;100050.53;;;34.22;38.26
50702;BME280;36670;50.094;8.496;2023-06-22T10:46:33;100040.72;;;34.19;38.15
50702;BME280;36670;50.094;8.496;2023-06-22T10:48:58;100031.16;;;33.88;37.52
50702;BME280;36670;50.094;8.496;2023-06-22T10:51:24;100025.66;;;33.38;37.93
50702;BME280;36670;50.094;8.496;2023-06-22T10:53:50;100017.03;;;33.52;38.41
50702;BME280;36670;50.094;8.496;2023-06-22T10:56:16;100013.19;;;33.84;38.30
50702;BME280;36670;50.094;8.496;2023-06-22T10:58:42;100012.50;;;33.55;37.35
50702;BME280;36670;50.094;8.496;2023-06-22T11:01:08;99992.44;;;34.18;38.23
50702;BME280;36670;50.094;8.496;2023-06-22T11:03:33;99987.44;;;34.71;36.76
50702;BME280;36670;50.094;8.496;2023-06-22T11:05:58;99985.47;;;35.02;36.39
50702;BME280;36670;50.094;8.496;2023-06-22T11:08:24;99978.50;;;35.03;36.57
50702;BME280;36670;50.094;8.496;2023-06-22T11:10:51;99986.38;;;34.58;36.29
50702;BME280;36670;50.094;8.496;2023-06-22T11:13:16;99990.81;;;34.17;37.98
50702;BME280;36670;50.094;8.496;2023-06-22T11:15:41;99982.84;;;33.90;37.08
50702;BME280;36670;50.094;8.496;2023-06-22T11:18:07;99973.16;;;34.22;37.54
50702;BME280;36670;50.094;8.496;2023-06-22T11:20:33;99971.53;;;34.21;37.06
50702;BME280;36670;50.094;8.496;2023-06-22T11:23:03;99962.41;;;34.41;37.21
50702;BME280;36670;50.094;8.496;2023-06-22T11:25:28;99950.66;;;34.24;37.01
50702;BME280;36670;50.094;8.496;2023-06-22T11:27:54;99968.50;;;34.43;37.25
50702;BME280;36670;50.094;8.496;2023-06-22T11:30:19;99960.94;;;34.60;36.60
50702;BME280;36670;50.094;8.496;2023-06-22T11:32:45;99960.31;;;34.79;36.87
50702;BME280;36670;50.094;8.496;2023-06-22T11:35:10;99948.09;;;35.10;35.83
50702;BME280;36670;50.094;8.496;2023-06-22T11:37:35;99952.50;;;35.14;36.24
50702;BME280;36670;50.094;8.496;2023-06-22T11:40:00;99954.16;;;35.15;36.41
50702;BME280;36670;50.094;8.496;2023-06-22T11:42:28;99949.91;;;35.27;35.26
50702;BME280;36670;50.094;8.496;2023-06-22T11:44:53;99943.22;;;35.37;35.33
50702;BME280;36670;50.094;8.496;2023-06-22T11:47:18;99937.66;;;35.23;36.12
50702;BME280;36670;50.094;8.496;2023-06-22T11:49:44;99948.66;;;35.59;35.70
50702;BME280;36670;50.094;8.496;2023-06-22T11:52:09;99954.66;;;35.41;35.77
50702;BME280;36670;50.094;8.496;2023-06-22T11:54:34;99951.16;;;34.95;36.43
50702;BME280;36670;50.094;8.496;2023-06-22T11:57:00;99942.69;;;35.15;35.31
50702;BME280;36670;50.094;8.496;2023-06-22T11:59:25;99920.50;;;35.74;35.70
50702;BME280;36670;50.094;8.496;2023-06-22T12:01:50;99931.47;;;36.30;35.06
50702;BME280;36670;50.094;8.496;2023-06-22T12:04:16;99927.91;;;36.66;33.76
50702;BME280;36670;50.094;8.496;2023-06-22T12:06:41;99915.75;;;36.38;33.42
50702;BME280;36670;50.094;8.496;2023-06-22T12:09:08;99923.31;;;36.49;34.61
50702;BME280;36670;50.094;8.496;2023-06-22T12:11:33;99919.84;;;36.58;34.05
50702;BME280;36670;50.094;8.496;2023-06-22T12:13:58;99915.34;;;36.36;33.83
50702;BME280;36670;50.094;8.496;2023-06-22T12:16:27;99905.00;;;36.19;34.27
50702;BME280;36670;50.094;8.496;2023-06-22T12:18:52;99902.16;;;36.15;34.35
50702;BME280;36670;50.094;8.496;2023-06-22T12:21:18;99903.44;;;35.91;34.25
50702;BME280;36670;50.094;8.496;2023-06-22T12:23:44;99913.38;;;36.30;35.20
50702;BME280;36670;50.094;8.496;2023-06-22T12:26:09;99912.03;;;36.14;34.27
50702;BME280;36670;50.094;8.496;2023-06-22T12:28:34;99901.88;;;36.10;34.67
50702;BME280;36670;50.094;8.496;2023-06-22T12:31:00;99900.84;;;36.44;35.21
50702;BME280;36670;50.094;8.496;2023-06-22T12:33:25;99911.84;;;36.89;34.65
50702;BME280;36670;50.094;8.496;2023-06-22T12:35:50;99905.56;;;36.54;33.33
50702;BME280;36670;50.094;8.496;2023-06-22T12:38:15;99905.66;;;36.70;34.28
50702;BME280;36670;50.094;8.496;2023-06-22T12:40:41;99908.28;;;36.61;33.91
50702;BME280;36670;50.094;8.496;2023-06-22T12:43:06;99900.63;;;36.54;33.26
50702;BME280;36670;50.094;8.496;2023-06-22T12:45:32;99895.53;;;36.18;33.21
50702;BME280;36670;50.094;8.496;2023-06-22T12:47:58;99890.22;;;35.97;34.14
50702;BME280;36670;50.094;8.496;2023-06-22T12:50:24;99902.00;;;36.46;34.06
50702;BME280;36670;50.094;8.496;2023-06-22T12:52:50;99896.25;;;36.02;34.17